Time;durP1;ratioP1;P1;durP2;ratioP2;P2;SDS_P1;SDS_P2;PMS_P1;PMS_P2;Temp;Humidity;BMP_temperature;BMP_pressure;BME280_temperature;BME280_humidity;BME280_pressure;Samples;Min_cycle;Max_cycle;Signal;HPM_P1;HPM_P2
2020/12/29 00:00:35;;;;;;;0.67;0.67;;;;;;;2.87;100.00;97749.78;4993470;28;20445;-68
2020/12/29 00:03:01;;;;;;;1.60;1.37;;;;;;;2.97;100.00;97745.97;4993721;28;20489;-67
2020/12/29 00:05:27;;;;;;;0.50;0.40;;;;;;;3.07;100.00;97755.53;4993968;28;20467;-67
2020/12/29 00:07:53;;;;;;;1.07;0.43;;;;;;;3.02;100.00;97753.81;4993740;28;20448;-68
2020/12/29 00:10:20;;;;;;;0.93;0.50;;;;;;;3.04;100.00;97751.59;4993836;28;20939;-67
2020/12/29 00:12:47;;;;;;;1.30;1.27;;;;;;;3.06;100.00;97752.06;4994413;28;20452;-67
2020/12/29 00:15:13;;;;;;;0.53;0.40;;;;;;;3.13;100.00;97747.00;4997351;28;20938;-67
2020/12/29 00:17:40;;;;;;;1.07;0.50;;;;;;;3.18;100.00;97746.03;4997630;28;20452;-68
2020/12/29 00:20:07;;;;;;;0.50;0.40;;;;;;;3.09;100.00;97747.97;4997198;28;20468;-68
2020/12/29 00:22:33;;;;;;;0.67;0.67;;;;;;;2.95;100.00;97746.28;4997613;28;20491;-68
2020/12/29 00:24:59;;;;;;;0.90;0.60;;;;;;;2.87;100.00;97746.31;4997616;28;20445;-68
2020/12/29 00:27:25;;;;;;;1.90;1.10;;;;;;;2.89;100.00;97749.47;4997406;28;20440;-68
2020/12/29 00:29:51;;;;;;;5.13;1.30;;;;;;;2.91;99.87;97747.25;4997311;28;20571;-67
2020/12/29 00:32:20;;;;;;;0.50;0.50;;;;;;;2.81;100.00;97742.25;4997516;28;20499;-68
2020/12/29 00:34:47;;;;;;;0.50;0.40;;;;;;;2.85;99.81;97729.81;4997278;28;20455;-68
2020/12/29 00:37:13;;;;;;;0.40;0.37;;;;;;;2.87;100.00;97738.28;4997206;28;20472;-67
2020/12/29 00:39:39;;;;;;;1.33;0.53;;;;;;;2.83;100.00;97732.81;4997269;28;20561;-68
2020/12/29 00:42:06;;;;;;;2.00;1.33;;;;;;;2.79;100.00;97731.91;4997134;28;20962;-69
2020/12/29 00:44:32;;;;;;;3.53;1.90;;;;;;;2.85;99.96;97729.81;4997231;28;20479;-68
2020/12/29 00:46:58;;;;;;;0.90;0.87;;;;;;;2.85;100.00;97727.94;4997082;28;20803;-68
2020/12/29 00:49:24;;;;;;;0.40;0.30;;;;;;;2.83;99.55;97707.97;4996967;28;20582;-67
2020/12/29 00:51:53;;;;;;;1.33;0.60;;;;;;;2.85;99.25;97713.78;4997052;28;20515;-68
2020/12/29 00:54:19;;;;;;;0.50;0.40;;;;;;;2.87;99.95;97724.94;4996896;28;20460;-68
2020/12/29 00:56:45;;;;;;;0.87;0.87;;;;;;;2.68;100.00;97715.41;4996887;28;20764;-68
2020/12/29 00:59:11;;;;;;;1.27;0.80;;;;;;;2.74;100.00;97721.34;4996857;28;20489;-68
2020/12/29 01:01:38;;;;;;;0.40;0.30;;;;;;;2.90;100.00;97724.31;4996570;28;20480;-68
2020/12/29 01:04:04;;;;;;;0.40;0.30;;;;;;;2.96;100.00;97728.34;4997061;28;20479;-66
2020/12/29 01:06:30;;;;;;;2.60;0.93;;;;;;;3.01;100.00;97731.66;4996501;28;20460;-66
2020/12/29 01:08:58;;;;;;;1.53;1.07;;;;;;;3.02;100.00;97743.13;4996477;28;21001;-66
2020/12/29 01:11:24;;;;;;;0.67;0.40;;;;;;;3.04;100.00;97748.94;4996394;28;20444;-67
2020/12/29 01:13:50;;;;;;;1.87;1.77;;;;;;;3.05;100.00;97747.81;4996709;28;20479;-66
2020/12/29 01:16:16;;;;;;;2.87;0.50;;;;;;;2.93;100.00;97755.75;4996301;28;20472;-67
2020/12/29 01:18:43;;;;;;;0.40;0.30;;;;;;;2.96;100.00;97765.78;4996593;28;20457;-66
2020/12/29 01:21:10;;;;;;;13.03;1.37;;;;;;;3.05;100.00;97769.19;4996191;28;20445;-67
2020/12/29 01:23:37;;;;;;;4.93;1.07;;;;;;;3.08;100.00;97760.53;4995981;28;20524;-67
2020/12/29 01:26:04;;;;;;;0.40;0.30;;;;;;;3.07;100.00;97769.69;4995134;28;20957;-67
2020/12/29 01:28:30;;;;;;;1.10;1.00;;;;;;;3.14;100.00;97767.28;4996173;28;20496;-65
2020/12/29 01:30:56;;;;;;;0.40;0.30;;;;;;;3.12;100.00;97768.72;4996704;28;20465;-66
2020/12/29 01:33:23;;;;;;;0.73;0.73;;;;;;;3.11;100.00;97765.25;4996641;28;20441;-65
2020/12/29 01:35:49;;;;;;;0.40;0.30;;;;;;;3.10;100.00;97761.03;4995978;28;20512;-65
2020/12/29 01:38:15;;;;;;;0.50;0.40;;;;;;;3.13;100.00;97763.03;4995882;28;20982;-66
2020/12/29 01:40:42;;;;;;;0.40;0.30;;;;;;;3.14;100.00;97759.25;4996418;28;20445;-66
2020/12/29 01:43:10;;;;;;;2.10;0.87;;;;;;;3.08;100.00;97755.19;4996073;28;20475;-66
2020/12/29 01:45:36;;;;;;;1.30;0.90;;;;;;;3.07;100.00;97764.34;4995770;28;20460;-67
2020/12/29 01:48:03;;;;;;;2.47;0.93;;;;;;;3.06;100.00;97770.78;4996075;28;20452;-67
2020/12/29 01:50:29;;;;;;;0.40;0.30;;;;;;;3.07;100.00;97763.56;4995973;28;21036;-67
2020/12/29 01:52:58;;;;;;;4.13;1.27;;;;;;;3.11;100.00;97773.28;4996085;28;20818;-66
2020/12/29 01:55:25;;;;;;;1.47;0.83;;;;;;;3.13;100.00;97776.41;4995871;28;20511;-67
2020/12/29 01:57:52;;;;;;;0.47;0.40;;;;;;;3.08;100.00;97776.59;4996329;28;20493;-66
2020/12/29 02:00:19;;;;;;;2.87;2.20;;;;;;;3.19;100.00;97775.16;4996921;28;20448;-66
2020/12/29 02:02:46;;;;;;;0.40;0.30;;;;;;;3.24;100.00;97782.19;4996445;28;20448;-66
2020/12/29 02:05:12;;;;;;;0.90;0.50;;;;;;;3.22;100.00;97773.69;4996314;28;20464;-67
2020/12/29 02:07:39;;;;;;;0.60;0.60;;;;;;;3.25;100.00;97776.53;4996304;28;20440;-67
2020/12/29 02:10:06;;;;;;;0.50;0.43;;;;;;;3.25;100.00;97779.19;4996291;28;20524;-68
2020/12/29 02:12:35;;;;;;;1.37;1.27;;;;;;;3.28;100.00;97778.56;4996683;28;20477;-66
2020/12/29 02:15:05;;;;;;;4.10;2.13;;;;;;;3.29;100.00;97756.03;4996287;28;20499;-66
2020/12/29 02:17:32;;;;;;;0.40;0.30;;;;;;;3.29;100.00;97753.38;4996405;28;20530;-68
2020/12/29 02:19:58;;;;;;;0.60;0.43;;;;;;;3.39;100.00;97759.47;4996558;28;20461;-66
2020/12/29 02:22:26;;;;;;;0.77;0.73;;;;;;;3.37;100.00;97754.44;4996135;28;21009;-66
2020/12/29 02:24:55;;;;;;;1.30;1.20;;;;;;;3.42;100.00;97753.47;4996150;28;20496;-66
2020/12/29 02:27:22;;;;;;;0.50;0.40;;;;;;;3.44;100.00;97748.56;4996106;28;20865;-67
2020/12/29 02:29:49;;;;;;;0.70;0.70;;;;;;;3.40;100.00;97737.72;4995817;28;20967;-66
2020/12/29 02:32:16;;;;;;;2.60;1.90;;;;;;;3.44;100.00;97735.19;4995890;28;20453;-68
2020/12/29 02:34:42;;;;;;;0.67;0.63;;;;;;;3.42;100.00;97732.06;4995796;28;20828;-67
2020/12/29 02:37:10;;;;;;;3.10;0.67;;;;;;;3.36;100.00;97726.09;4994794;28;20449;-68
2020/12/29 02:39:39;;;;;;;2.97;1.50;;;;;;;3.35;100.00;97715.72;4994716;28;21006;-67
2020/12/29 02:42:06;;;;;;;0.40;0.40;;;;;;;3.24;100.00;97713.44;4995243;28;20477;-68
2020/12/29 02:44:32;;;;;;;0.83;0.40;;;;;;;3.17;100.00;97709.69;4994719;28;20974;-68
2020/12/29 02:46:58;;;;;;;2.50;0.80;;;;;;;3.13;100.00;97709.56;4995007;28;20449;-67
2020/12/29 02:49:24;;;;;;;1.10;0.70;;;;;;;3.15;100.00;97698.56;4994726;28;20531;-66
2020/12/29 02:51:50;;;;;;;6.63;2.10;;;;;;;3.11;100.00;97702.97;4994548;28;20460;-67
2020/12/29 02:54:17;;;;;;;0.50;0.43;;;;;;;3.07;100.00;97702.84;4994553;28;20496;-68
2020/12/29 02:56:45;;;;;;;0.70;0.50;;;;;;;3.11;100.00;97703.75;4994873;28;20429;-68
2020/12/29 02:59:12;;;;;;;4.13;3.73;;;;;;;3.13;100.00;97706.09;4994309;28;20501;-66
2020/12/29 03:01:38;;;;;;;0.80;0.80;;;;;;;3.07;100.00;97724.22;4994374;28;20970;-66
2020/12/29 03:04:04;;;;;;;1.43;0.80;;;;;;;3.09;100.00;97742.63;4994688;28;20891;-67
2020/12/29 03:06:31;;;;;;;1.10;0.83;;;;;;;3.08;100.00;97733.03;4994532;28;20799;-67
2020/12/29 03:08:57;;;;;;;0.90;0.73;;;;;;;3.14;100.00;97734.41;4994465;28;20492;-67
2020/12/29 03:11:25;;;;;;;0.40;0.40;;;;;;;3.19;100.00;97742.28;4994598;28;20452;-68
2020/12/29 03:13:52;;;;;;;1.90;1.80;;;;;;;3.20;100.00;97744.63;4994533;28;20810;-67
2020/12/29 03:16:19;;;;;;;0.93;0.93;;;;;;;3.21;100.00;97743.50;4994680;28;20456;-67
2020/12/29 03:18:45;;;;;;;2.37;2.20;;;;;;;3.18;100.00;97748.69;4994067;28;20473;-67
2020/12/29 03:21:11;;;;;;;4.93;0.67;;;;;;;3.19;100.00;97744.94;4994115;28;20485;-67
2020/12/29 03:23:37;;;;;;;0.90;0.70;;;;;;;3.19;100.00;97732.34;4994741;28;20473;-67
2020/12/29 03:26:03;;;;;;;0.80;0.60;;;;;;;3.25;100.00;97747.09;4995266;28;20480;-68
2020/12/29 03:28:29;;;;;;;1.33;1.23;;;;;;;3.22;100.00;97747.72;4996176;28;20564;-66
2020/12/29 03:30:56;;;;;;;1.30;0.93;;;;;;;3.27;100.00;97760.13;4995610;28;20480;-66
2020/12/29 03:33:33;;;;;;;;;;;;;;;;;;;;;
2020/12/29 03:35:59;;;;;;;1.57;1.27;;;;;;;3.26;100.00;97756.69;4994353;28;20403;-66
2020/12/29 03:38:26;;;;;;;0.53;0.53;;;;;;;3.30;100.00;97756.81;4994095;28;20464;-67
2020/12/29 03:40:52;;;;;;;14.53;1.77;;;;;;;3.24;100.00;97748.22;4994296;28;20522;-66
2020/12/29 03:43:19;;;;;;;0.40;0.30;;;;;;;3.27;100.00;97734.16;4994183;28;20444;-66
2020/12/29 03:45:47;;;;;;;1.03;1.03;;;;;;;3.28;100.00;97743.78;4993904;28;20476;-68
2020/12/29 03:48:16;;;;;;;2.03;1.83;;;;;;;3.29;100.00;97744.56;4992040;28;20894;-67
2020/12/29 03:50:43;;;;;;;1.30;0.73;;;;;;;3.35;100.00;97761.22;4994137;28;20485;-67
2020/12/29 03:53:10;;;;;;;1.00;0.87;;;;;;;3.36;100.00;97762.78;5039082;23;20499;-67
2020/12/29 03:55:37;;;;;;;0.40;0.30;;;;;;;3.45;100.00;97766.19;5032691;28;20482;-63
2020/12/29 03:58:03;;;;;;;2.57;1.10;;;;;;;3.44;100.00;97768.06;5032737;28;20450;-66
2020/12/29 04:00:29;;;;;;;0.50;0.50;;;;;;;3.44;100.00;97764.63;5032715;28;20944;-65
2020/12/29 04:02:55;;;;;;;2.57;1.30;;;;;;;3.44;100.00;97775.31;5032829;28;20467;-67
2020/12/29 04:05:22;;;;;;;0.70;0.70;;;;;;;3.35;100.00;97764.66;5033055;28;20474;-67
2020/12/29 04:07:48;;;;;;;0.40;0.30;;;;;;;3.32;100.00;97764.53;5033013;28;20447;-67
2020/12/29 04:10:15;;;;;;;1.83;0.87;;;;;;;3.30;100.00;97767.53;5032515;28;20518;-67
2020/12/29 04:12:41;;;;;;;0.40;0.27;;;;;;;3.35;100.00;97766.56;5032852;28;20455;-68
2020/12/29 04:15:08;;;;;;;1.37;0.73;;;;;;;3.34;100.00;97770.34;5032502;28;20787;-66
2020/12/29 04:17:34;;;;;;;0.80;0.60;;;;;;;3.35;100.00;97771.91;5032897;28;20443;-68
2020/12/29 04:20:00;;;;;;;5.70;2.00;;;;;;;3.32;100.00;97777.91;5032582;28;20963;-65
2020/12/29 04:22:31;;;;;;;1.13;0.47;;;;;;;3.32;100.00;97777.91;5033152;28;20549;-64
2020/12/29 04:24:57;;;;;;;5.43;2.63;;;;;;;3.26;100.00;97786.09;5032684;28;20956;-64
2020/12/29 04:27:23;;;;;;;0.50;0.50;;;;;;;3.28;100.00;97783.91;5032790;28;20485;-64
2020/12/29 04:29:50;;;;;;;0.40;0.30;;;;;;;3.32;100.00;97788.59;5032428;28;20549;-64
2020/12/29 04:32:16;;;;;;;1.43;0.60;;;;;;;3.33;100.00;97782.94;5032275;28;20980;-65
2020/12/29 04:34:42;;;;;;;0.40;0.30;;;;;;;3.39;100.00;97784.31;5032742;28;20446;-64
2020/12/29 04:37:08;;;;;;;1.90;0.60;;;;;;;3.42;100.00;97794.38;5032536;28;20443;-65
2020/12/29 04:39:35;;;;;;;0.40;0.30;;;;;;;3.45;100.00;97798.28;5032559;28;20439;-64
2020/12/29 04:42:04;;;;;;;0.90;0.87;;;;;;;3.46;100.00;97792.63;5032572;28;20906;-65
2020/12/29 04:44:30;;;;;;;0.40;0.37;;;;;;;3.48;100.00;97794.97;5032584;28;20443;-64
2020/12/29 04:46:57;;;;;;;0.57;0.50;;;;;;;3.53;100.00;97792.09;5031311;28;20812;-66
2020/12/29 04:49:23;;;;;;;2.33;0.90;;;;;;;3.47;100.00;97782.72;5032405;28;20513;-64
2020/12/29 04:51:51;;;;;;;1.13;0.53;;;;;;;3.44;100.00;97786.03;5032665;28;20474;-65
2020/12/29 04:54:19;;;;;;;0.73;0.73;;;;;;;3.42;100.00;97786.34;5032364;28;20491;-64
2020/12/29 04:56:55;;;;;;;0.83;0.83;;;;;;;3.46;100.00;97778.47;5032366;28;20952;-64
2020/12/29 04:59:21;;;;;;;0.50;0.50;;;;;;;3.43;100.00;97779.88;5034122;28;20458;-64
2020/12/29 05:01:47;;;;;;;1.90;0.50;;;;;;;3.36;100.00;97784.16;5036258;28;20536;-65
2020/12/29 05:04:14;;;;;;;4.23;1.70;;;;;;;3.27;100.00;97789.56;5035732;28;20980;-65
2020/12/29 05:06:40;;;;;;;0.40;0.30;;;;;;;3.26;100.00;97785.31;5035766;28;20443;-64
2020/12/29 05:09:06;;;;;;;1.80;1.20;;;;;;;3.25;100.00;97800.59;5035855;28;20568;-65
2020/12/29 05:11:34;;;;;;;2.30;0.80;;;;;;;3.18;100.00;97797.63;5035956;28;20822;-64
2020/12/29 05:14:01;;;;;;;1.63;1.53;;;;;;;3.11;100.00;97805.38;5035841;28;20469;-64
2020/12/29 05:16:27;;;;;;;1.23;0.50;;;;;;;3.11;100.00;97800.03;5035749;28;20450;-64
2020/12/29 05:18:54;;;;;;;0.87;0.70;;;;;;;3.06;100.00;97800.22;5035809;28;20517;-64
2020/12/29 05:21:21;;;;;;;1.83;0.67;;;;;;;3.02;100.00;97799.28;5035685;28;20509;-64
2020/12/29 05:23:47;;;;;;;2.70;1.90;;;;;;;3.00;100.00;97798.78;5035693;28;20482;-64
2020/12/29 05:26:14;;;;;;;4.50;0.83;;;;;;;2.98;100.00;97801.00;5035380;28;20956;-65
2020/12/29 05:28:40;;;;;;;1.60;1.50;;;;;;;2.91;100.00;97812.19;5035332;28;21023;-64
2020/12/29 05:31:07;;;;;;;0.50;0.50;;;;;;;2.91;100.00;97814.06;5035386;28;20436;-65
2020/12/29 05:33:34;;;;;;;1.60;0.87;;;;;;;2.92;100.00;97818.31;5035244;28;21042;-65
2020/12/29 05:36:01;;;;;;;1.87;1.07;;;;;;;2.94;100.00;97830.28;5035459;28;20476;-64
2020/12/29 05:38:27;;;;;;;1.27;0.90;;;;;;;2.97;100.00;97837.66;5035581;28;20547;-65
2020/12/29 05:40:54;;;;;;;0.50;0.40;;;;;;;3.00;100.00;97844.25;5034621;28;20590;-65
2020/12/29 05:43:28;;;;;;;3.80;2.93;;;;;;;2.99;100.00;97851.47;5035793;28;20494;-65
2020/12/29 05:45:57;;;;;;;0.40;0.27;;;;;;;2.97;100.00;97851.03;5034887;28;20481;-65
2020/12/29 05:48:24;;;;;;;1.40;0.73;;;;;;;2.92;100.00;97845.03;5035253;28;20450;-64
2020/12/29 05:50:50;;;;;;;1.00;0.53;;;;;;;2.87;100.00;97847.88;5035133;28;20510;-64
2020/12/29 05:53:20;;;;;;;1.57;0.63;;;;;;;2.80;100.00;97850.28;5034954;28;20561;-65
2020/12/29 05:55:47;;;;;;;0.40;0.30;;;;;;;2.75;100.00;97848.56;5035261;28;20449;-64
2020/12/29 05:58:13;;;;;;;0.53;0.53;;;;;;;2.73;100.00;97856.88;5035114;28;20443;-65
2020/12/29 06:00:40;;;;;;;0.50;0.40;;;;;;;2.69;100.00;97844.47;5035125;28;20451;-65
2020/12/29 06:03:08;;;;;;;1.13;0.60;;;;;;;2.65;100.00;97849.66;5034686;28;20478;-65
2020/12/29 06:05:37;;;;;;;0.40;0.30;;;;;;;2.64;100.00;97856.09;5034711;28;20955;-65
2020/12/29 06:08:05;;;;;;;0.90;0.60;;;;;;;2.62;100.00;97868.22;5034918;28;20441;-66
2020/12/29 06:10:33;;;;;;;7.70;1.13;;;;;;;2.57;100.00;97871.84;5033965;28;20493;-64
2020/12/29 06:13:00;;;;;;;0.40;0.30;;;;;;;2.50;100.00;97877.66;5034828;28;20509;-64
2020/12/29 06:15:28;;;;;;;0.60;0.60;;;;;;;2.50;100.00;97882.22;5034729;28;20443;-68
2020/12/29 06:17:56;;;;;;;11.43;2.57;;;;;;;2.48;100.00;97879.84;5034452;28;20929;-65
2020/12/29 06:20:23;;;;;;;0.40;0.30;;;;;;;2.42;100.00;97869.63;5034387;28;20478;-67
2020/12/29 06:22:52;;;;;;;1.03;0.50;;;;;;;2.38;100.00;97868.69;5034636;28;20463;-66
2020/12/29 06:25:19;;;;;;;0.50;0.40;;;;;;;2.22;100.00;97871.81;5034569;28;20547;-67
2020/12/29 06:27:51;;;;;;;0.40;0.40;;;;;;;2.15;100.00;97871.50;5034605;28;20461;-66
2020/12/29 06:30:19;;;;;;;1.63;1.10;;;;;;;2.16;100.00;97881.06;5034607;28;20838;-66
2020/12/29 06:32:48;;;;;;;2.43;2.23;;;;;;;2.16;100.00;97888.28;5034438;28;20465;-66
2020/12/29 06:35:15;;;;;;;0.40;0.30;;;;;;;2.07;100.00;97888.28;5034437;28;20864;-67
2020/12/29 06:37:46;;;;;;;0.50;0.50;;;;;;;2.07;100.00;97890.97;5034336;28;20453;-66
2020/12/29 06:40:14;;;;;;;1.40;1.30;;;;;;;2.05;100.00;97889.72;5034345;28;20560;-67
2020/12/29 06:42:42;;;;;;;2.30;1.13;;;;;;;2.00;100.00;97893.31;5033926;28;20501;-67
2020/12/29 06:45:10;;;;;;;1.10;0.73;;;;;;;1.94;100.00;97886.53;5034302;28;20480;-67
2020/12/29 06:47:38;;;;;;;0.70;0.37;;;;;;;1.93;100.00;97884.97;5033937;28;20447;-67
2020/12/29 06:50:24;;;;;;;0.53;0.50;;;;;;;1.95;100.00;97893.47;5034079;28;20581;-67
2020/12/29 06:52:58;;;;;;;6.17;1.63;;;;;;;1.97;100.00;97897.38;5033874;28;20576;-66
2020/12/29 06:55:28;;;;;;;0.73;0.73;;;;;;;1.94;100.00;97905.22;5033815;28;20423;-66
2020/12/29 06:57:54;;;;;;;0.90;0.83;;;;;;;1.84;100.00;97902.84;5033968;28;20444;-66
2020/12/29 07:00:23;;;;;;;1.07;0.47;;;;;;;1.82;100.00;97905.81;5034227;28;20814;-67
2020/12/29 07:02:53;;;;;;;0.40;0.30;;;;;;;1.82;100.00;97910.38;5033802;28;20459;-65
2020/12/29 07:05:21;;;;;;;0.63;0.60;;;;;;;1.72;100.00;97912.22;5033576;28;20435;-67
2020/12/29 07:07:52;;;;;;;1.53;0.60;;;;;;;1.70;100.00;97919.75;5033658;28;20493;-67
2020/12/29 07:10:19;;;;;;;0.40;0.30;;;;;;;1.62;100.00;97917.03;5033788;28;20540;-67
2020/12/29 07:12:49;;;;;;;1.17;1.07;;;;;;;1.71;100.00;97931.19;5033437;28;20464;-66
2020/12/29 07:15:17;;;;;;;0.67;0.67;;;;;;;1.62;100.00;97933.84;5033709;28;20466;-67
2020/12/29 07:18:01;;;;;;;2.00;1.00;;;;;;;1.64;100.00;97946.84;5033722;28;20447;-66
2020/12/29 07:20:31;;;;;;;0.80;0.50;;;;;;;1.58;100.00;97943.53;5033625;28;20434;-66
2020/12/29 07:23:02;;;;;;;4.33;1.90;;;;;;;1.51;100.00;97954.66;5033566;28;20952;-66
2020/12/29 07:25:30;;;;;;;3.07;1.20;;;;;;;1.47;100.00;97960.91;5033336;28;20463;-66
2020/12/29 07:28:00;;;;;;;1.23;1.13;;;;;;;1.46;100.00;97956.66;5033511;28;20450;-66
2020/12/29 07:30:28;;;;;;;2.63;2.33;;;;;;;1.40;100.00;97952.56;5033619;28;20518;-66
2020/12/29 07:32:57;;;;;;;0.40;0.40;;;;;;;1.47;100.00;97958.25;5033457;28;20864;-66
2020/12/29 07:35:26;;;;;;;0.40;0.30;;;;;;;1.45;100.00;97961.22;5033401;28;21025;-66
2020/12/29 07:37:55;;;;;;;1.43;1.33;;;;;;;1.47;100.00;97958.25;5033331;28;20984;-66
2020/12/29 07:40:21;;;;;;;0.40;0.30;;;;;;;1.39;100.00;97956.31;5033443;28;20482;-65
2020/12/29 07:42:47;;;;;;;0.60;0.60;;;;;;;1.36;100.00;97956.94;5033306;28;20473;-66
2020/12/29 07:45:14;;;;;;;1.13;0.97;;;;;;;1.31;100.00;97963.19;5032922;28;20474;-66
2020/12/29 07:47:41;;;;;;;0.40;0.30;;;;;;;1.34;100.00;97972.44;5033253;28;20443;-66
2020/12/29 07:50:07;;;;;;;0.50;0.50;;;;;;;1.23;100.00;97986.00;5033094;28;20486;-66
2020/12/29 07:52:33;;;;;;;5.70;0.73;;;;;;;1.29;100.00;97980.59;5032988;28;20471;-66
2020/12/29 07:55:07;;;;;;;0.50;0.43;;;;;;;1.29;100.00;97983.25;5033214;28;20441;-66
2020/12/29 07:57:34;;;;;;;0.50;0.40;;;;;;;1.31;100.00;97981.84;5033132;28;20556;-67
2020/12/29 08:00:11;;;;;;;0.60;0.60;;;;;;;1.44;100.00;97993.53;5033081;28;20436;-66
2020/12/29 08:02:38;;;;;;;5.00;1.07;;;;;;;1.40;100.00;97989.88;5032986;28;20501;-69
2020/12/29 08:05:05;;;;;;;1.80;0.87;;;;;;;1.37;100.00;97990.50;5032740;28;20493;-70
2020/12/29 08:07:31;;;;;;;0.40;0.40;;;;;;;1.33;100.00;97990.34;5032747;28;20955;-69
2020/12/29 08:09:57;;;;;;;1.33;1.23;;;;;;;1.38;100.00;98000.09;5032687;28;21023;-68
2020/12/29 08:12:24;;;;;;;1.37;0.60;;;;;;;1.36;100.00;98002.25;5032964;28;20501;-69
2020/12/29 08:14:50;;;;;;;0.50;0.40;;;;;;;1.37;100.00;98001.16;5033024;28;20470;-68
2020/12/29 08:17:16;;;;;;;0.73;0.40;;;;;;;1.39;100.00;98004.31;5033159;28;20446;-69
2020/12/29 08:19:43;;;;;;;1.37;1.07;;;;;;;1.46;100.00;98005.47;5032933;28;20472;-66
2020/12/29 08:22:10;;;;;;;1.00;0.63;;;;;;;1.44;100.00;98014.88;5032824;28;20446;-67
2020/12/29 08:24:39;;;;;;;0.83;0.83;;;;;;;1.50;100.00;98010.97;5032631;28;20497;-66
2020/12/29 08:27:05;;;;;;;1.10;1.00;;;;;;;1.57;100.00;98016.66;5032833;28;20442;-65
2020/12/29 08:29:33;;;;;;;1.80;1.27;;;;;;;1.58;100.00;98012.91;5032767;28;20488;-69
2020/12/29 08:32:07;;;;;;;0.60;0.50;;;;;;;1.66;100.00;98025.50;5032874;28;20478;-66
2020/12/29 08:34:34;;;;;;;8.33;2.30;;;;;;;1.67;100.00;98024.41;5034639;28;20448;-66
2020/12/29 08:37:02;;;;;;;4.30;2.20;;;;;;;1.74;100.00;98038.09;5036811;28;20470;-66
2020/12/29 08:39:46;;;;;;;0.50;0.40;;;;;;;1.87;100.00;98036.44;5036655;28;20439;-65
2020/12/29 08:42:13;;;;;;;0.63;0.53;;;;;;;1.92;100.00;98038.97;5036516;28;20524;-67
2020/12/29 08:44:44;;;;;;;1.80;1.33;;;;;;;1.97;100.00;98041.50;5036518;28;20440;-65
2020/12/29 08:47:11;;;;;;;2.20;1.00;;;;;;;2.03;100.00;98055.50;5036197;28;20921;-67
2020/12/29 08:49:37;;;;;;;4.97;1.43;;;;;;;1.99;100.00;98070.56;5036320;28;20921;-65
2020/12/29 08:52:04;;;;;;;0.40;0.30;;;;;;;2.08;100.00;98068.75;5036166;28;20443;-65
2020/12/29 08:54:35;;;;;;;0.70;0.70;;;;;;;2.10;100.00;98071.88;5036376;28;20429;-65
2020/12/29 08:57:02;;;;;;;1.30;1.03;;;;;;;2.13;100.00;98075.84;5036371;28;20423;-65
2020/12/29 08:59:38;;;;;;;1.37;1.30;;;;;;;2.19;100.00;98085.28;5035717;28;20443;-67
2020/12/29 09:02:05;;;;;;;1.40;1.40;;;;;;;2.19;100.00;98088.72;5035391;28;20457;-66
2020/12/29 09:04:33;;;;;;;0.70;0.60;;;;;;;2.24;100.00;98096.59;5035593;28;20463;-65
2020/12/29 09:07:02;;;;;;;1.13;0.77;;;;;;;2.33;100.00;98110.00;5035953;28;20450;-66
2020/12/29 09:09:30;;;;;;;0.40;0.30;;;;;;;2.42;100.00;98112.72;5035943;28;20501;-64
2020/12/29 09:12:10;;;;;;;0.70;0.40;;;;;;;2.47;100.00;98116.03;5035979;28;20445;-65
2020/12/29 09:14:37;;;;;;;0.40;0.30;;;;;;;2.50;100.00;98119.97;5035662;28;20443;-65
2020/12/29 09:17:04;;;;;;;1.80;1.70;;;;;;;2.55;100.00;98130.53;5036111;28;20450;-65
2020/12/29 09:19:31;;;;;;;0.50;0.40;;;;;;;2.59;100.00;98131.47;5035893;28;20812;-65
2020/12/29 09:22:09;;;;;;;0.87;0.80;;;;;;;2.63;100.00;98124.41;5035661;28;20505;-67
2020/12/29 09:24:37;;;;;;;0.80;0.80;;;;;;;2.64;100.00;98127.88;5036125;28;20422;-65
2020/12/29 09:27:03;;;;;;;8.90;1.33;;;;;;;2.70;100.00;98138.13;5035741;28;20435;-66
2020/12/29 09:29:34;;;;;;;0.50;0.50;;;;;;;2.73;100.00;98137.50;5035625;28;20481;-65
2020/12/29 09:32:01;;;;;;;0.87;0.73;;;;;;;2.74;100.00;98141.75;5035765;28;20516;-65
2020/12/29 09:34:27;;;;;;;2.80;1.70;;;;;;;2.79;100.00;98135.50;5035385;28;20466;-66
2020/12/29 09:36:54;;;;;;;0.50;0.40;;;;;;;2.90;100.00;98144.00;5035434;28;20457;-67
2020/12/29 09:39:20;;;;;;;0.60;0.53;;;;;;;2.90;100.00;98144.00;5035142;28;20532;-63
2020/12/29 09:41:54;;;;;;;0.93;0.87;;;;;;;2.91;100.00;98148.25;5035485;28;20471;-64
2020/12/29 09:44:20;;;;;;;0.40;0.30;;;;;;;2.87;100.00;98145.41;5035192;28;20940;-65
2020/12/29 09:46:46;;;;;;;0.50;0.50;;;;;;;2.88;100.00;98140.84;5034220;28;20474;-64
2020/12/29 09:49:12;;;;;;;10.53;1.43;;;;;;;2.84;100.00;98142.56;5035224;28;20480;-64
2020/12/29 09:51:38;;;;;;;2.40;0.87;;;;;;;2.86;100.00;98156.41;5035173;28;20482;-65
2020/12/29 09:54:04;;;;;;;0.97;0.90;;;;;;;2.87;100.00;98153.41;5072494;23;20526;-77
2020/12/29 09:56:31;;;;;;;2.53;1.00;;;;;;;2.91;100.00;98158.94;5055584;28;20454;-77
2020/12/29 09:58:58;;;;;;;4.10;2.00;;;;;;;2.89;100.00;98166.50;5055854;28;21078;-78
2020/12/29 10:01:24;;;;;;;0.97;0.87;;;;;;;2.89;100.00;98161.16;5056642;28;20943;-77
2020/12/29 10:03:50;;;;;;;0.70;0.70;;;;;;;2.96;100.00;98156.13;5056516;28;20445;-78
2020/12/29 10:06:16;;;;;;;2.03;0.67;;;;;;;3.05;100.00;98159.59;5056246;28;20443;-77
2020/12/29 10:08:43;;;;;;;2.50;0.70;;;;;;;3.12;100.00;98162.59;5055968;28;21008;-77
2020/12/29 10:11:11;;;;;;;1.03;0.93;;;;;;;3.18;100.00;98160.56;5056612;28;20482;-78
2020/12/29 10:13:37;;;;;;;0.40;0.30;;;;;;;3.32;100.00;98160.44;5055985;28;20539;-77
2020/12/29 10:16:05;;;;;;;7.13;1.50;;;;;;;3.44;100.00;98158.72;5056222;28;20458;-78
2020/12/29 10:18:32;;;;;;;0.40;0.30;;;;;;;3.52;100.00;98157.94;5056813;28;20462;-77
2020/12/29 10:20:58;;;;;;;0.60;0.60;;;;;;;3.70;100.00;98169.44;5056254;28;20450;-78
2020/12/29 10:23:24;;;;;;;2.87;1.17;;;;;;;3.90;99.94;98160.00;5054970;28;20797;-77
2020/12/29 10:25:51;;;;;;;1.07;0.57;;;;;;;4.10;99.27;98176.50;5055974;28;20446;-78
2020/12/29 10:28:19;;;;;;;6.63;1.03;;;;;;;4.22;98.65;98190.03;5056437;28;20454;-78
2020/12/29 10:30:47;;;;;;;2.50;2.40;;;;;;;4.21;97.24;98188.47;5056009;28;20584;-78
2020/12/29 10:33:14;;;;;;;2.17;1.33;;;;;;;4.21;97.24;98193.84;5055885;28;20496;-78
2020/12/29 10:35:40;;;;;;;0.40;0.30;;;;;;;4.29;97.16;98196.50;5056616;28;20446;-78
2020/12/29 10:38:07;;;;;;;0.70;0.50;;;;;;;4.36;96.95;98201.34;5055763;28;20817;-79
2020/12/29 10:40:33;;;;;;;1.60;1.50;;;;;;;4.45;96.19;98215.53;5055252;28;20513;-77
2020/12/29 10:42:59;;;;;;;0.87;0.57;;;;;;;4.40;96.22;98207.66;5055613;28;20450;-78
2020/12/29 10:45:25;;;;;;;2.03;0.90;;;;;;;4.43;96.01;98208.91;5054516;28;20943;-77
2020/12/29 10:47:51;;;;;;;1.23;0.70;;;;;;;4.54;95.79;98212.81;5055534;28;20488;-78
2020/12/29 10:50:19;;;;;;;0.87;0.87;;;;;;;4.52;95.39;98215.03;5054846;28;20485;-78
2020/12/29 10:52:45;;;;;;;1.17;1.13;;;;;;;4.54;95.25;98215.50;5055865;28;20442;-77
2020/12/29 10:55:12;;;;;;;2.53;0.70;;;;;;;4.54;94.55;98218.97;5055013;28;20438;-78
2020/12/29 10:57:38;;;;;;;1.23;0.93;;;;;;;4.58;94.81;98223.69;5054776;28;20477;-77
2020/12/29 11:00:04;;;;;;;2.77;1.70;;;;;;;4.53;93.68;98206.69;5055751;28;20958;-78
2020/12/29 11:02:30;;;;;;;1.03;0.87;;;;;;;4.51;94.07;98208.09;5055178;28;20950;-78
2020/12/29 11:04:57;;;;;;;1.70;0.90;;;;;;;4.54;95.01;98223.53;5055696;28;20453;-78
2020/12/29 11:07:24;;;;;;;1.83;1.73;;;;;;;4.47;94.82;98210.63;5054684;28;20820;-78
2020/12/29 11:09:50;;;;;;;0.50;0.50;;;;;;;4.47;95.02;98223.22;5055122;28;20552;-78
2020/12/29 11:12:16;;;;;;;1.33;1.23;;;;;;;4.56;94.60;98215.97;5054781;28;20430;-78
2020/12/29 11:14:42;;;;;;;0.80;0.80;;;;;;;4.60;94.75;98219.56;5054517;28;20446;-77
2020/12/29 11:17:08;;;;;;;1.03;0.80;;;;;;;4.64;95.60;98228.56;5053988;28;20433;-78
2020/12/29 11:19:35;;;;;;;0.50;0.40;;;;;;;4.69;95.39;98225.72;5054548;28;20944;-78
2020/12/29 11:22:01;;;;;;;0.53;0.50;;;;;;;4.60;95.66;98230.28;5054353;28;20496;-77
2020/12/29 11:24:28;;;;;;;0.83;0.67;;;;;;;4.63;94.51;98236.94;5054221;28;20453;-77
2020/12/29 11:26:54;;;;;;;1.07;1.07;;;;;;;4.60;95.04;98227.63;5054128;28;20446;-78
2020/12/29 11:29:20;;;;;;;1.23;1.10;;;;;;;4.62;95.44;98230.78;5053734;28;20811;-78
2020/12/29 11:31:47;;;;;;;1.63;1.30;;;;;;;4.69;95.37;98241.81;5055270;28;20939;-78
2020/12/29 11:34:13;;;;;;;0.53;0.50;;;;;;;4.70;95.31;98246.06;5054852;28;20446;-77
2020/12/29 11:36:39;;;;;;;1.77;1.23;;;;;;;4.76;94.98;98239.41;5055417;28;20450;-78